Time;durP1;ratioP1;P1;durP2;ratioP2;P2;SDS_P1;SDS_P2;PMS_P1;PMS_P2;Temp;Humidity;BMP_temperature;BMP_pressure;BME280_temperature;BME280_humidity;BME280_pressure;Samples;Min_cycle;Max_cycle;Signal;HPM_P1;HPM_P2
2022/12/06 00:00:51;;;;;;;9.07;4.30;;;;;;;;;;4979021;28;20212;-66
2022/12/06 00:03:16;;;;;;;8.48;4.50;;;;;;;;;;4982448;28;20312;-66
2022/12/06 00:05:41;;;;;;;7.30;4.73;;;;;;;;;;4984777;28;20704;-66
2022/12/06 00:08:06;;;;;;;7.10;4.60;;;;;;;;;;4983989;28;20225;-66
2022/12/06 00:10:33;;;;;;;6.40;4.07;;;;;;;;;;4983771;28;20252;-66
2022/12/06 00:12:58;;;;;;;8.43;4.90;;;;;;;;;;5002378;28;20319;-66
2022/12/06 00:15:24;;;;;;;7.28;4.47;;;;;;;;;;4998370;28;20742;-66
2022/12/06 00:17:49;;;;;;;7.80;4.90;;;;;;;;;;4979986;28;20228;-66
2022/12/06 00:20:14;;;;;;;7.93;4.72;;;;;;;;;;4976093;28;20569;-66
2022/12/06 00:22:42;;;;;;;7.13;4.60;;;;;;;;;;4995416;28;21580;-66
2022/12/06 00:25:08;;;;;;;7.27;4.50;;;;;;;;;;4999507;28;20244;-66
2022/12/06 00:27:33;;;;;;;7.73;4.50;;;;;;;;;;5003732;28;20282;-66
2022/12/06 00:29:58;;;;;;;6.43;4.10;;;;;;;;;;5003459;28;20223;-66
2022/12/06 00:32:24;;;;;;;6.32;4.00;;;;;;;;;;5002982;28;20228;-66
2022/12/06 00:34:49;;;;;;;7.80;4.43;;;;;;;;;;5003866;28;20236;-66
2022/12/06 00:37:14;;;;;;;6.70;4.10;;;;;;;;;;5001924;28;20240;-66
2022/12/06 00:39:39;;;;;;;6.83;4.03;;;;;;;;;;5000992;28;20250;-66
2022/12/06 00:42:05;;;;;;;8.40;4.40;;;;;;;;;;4995229;28;21128;-66
2022/12/06 00:44:30;;;;;;;7.32;3.75;;;;;;;;;;4994711;28;20212;-66
2022/12/06 00:46:55;;;;;;;6.97;3.97;;;;;;;;;;4997246;28;20212;-66
2022/12/06 00:49:21;;;;;;;6.85;4.03;;;;;;;;;;5003082;28;20564;-66
2022/12/06 00:51:46;;;;;;;6.83;4.10;;;;;;;;;;5002150;28;20219;-66
2022/12/06 00:54:12;;;;;;;6.88;4.10;;;;;;;;;;5002892;28;20303;-66
2022/12/06 00:56:38;;;;;;;6.05;4.05;;;;;;;;;;4996465;28;20300;-66
2022/12/06 00:59:03;;;;;;;6.65;4.30;;;;;;;;;;4983070;28;20351;-66
2022/12/06 01:01:29;;;;;;;6.72;3.60;;;;;;;;;;4983960;28;20212;-66
2022/12/06 01:03:55;;;;;;;6.18;3.72;;;;;;;;;;4977206;28;20237;-66
2022/12/06 01:06:22;;;;;;;5.90;3.73;;;;;;;;;;4992859;28;20316;-66
2022/12/06 01:08:47;;;;;;;5.93;3.75;;;;;;;;;;4993673;28;20220;-66
2022/12/06 01:11:13;;;;;;;6.33;4.17;;;;;;;;;;4989496;28;20229;-66
2022/12/06 01:13:38;;;;;;;5.40;3.60;;;;;;;;;;4982932;28;20229;-66
2022/12/06 01:16:05;;;;;;;6.70;4.32;;;;;;;;;;4983077;28;20221;-66
2022/12/06 01:18:30;;;;;;;7.07;4.72;;;;;;;;;;5002835;28;20236;-66
2022/12/06 01:20:56;;;;;;;9.32;4.20;;;;;;;;;;5002091;28;20251;-66
2022/12/06 01:23:21;;;;;;;7.60;4.05;;;;;;;;;;5002671;28;20902;-66
2022/12/06 01:25:48;;;;;;;6.63;4.23;;;;;;;;;;4997886;28;20220;-66
2022/12/06 01:28:13;;;;;;;8.47;4.60;;;;;;;;;;4993717;28;20876;-66
2022/12/06 01:30:38;;;;;;;8.47;4.57;;;;;;;;;;4994791;28;20547;-66
2022/12/06 01:33:04;;;;;;;9.10;4.77;;;;;;;;;;4998367;28;20236;-66
2022/12/06 01:35:29;;;;;;;10.43;5.30;;;;;;;;;;5002165;28;20216;-66
2022/12/06 01:37:54;;;;;;;11.33;4.80;;;;;;;;;;5002506;28;20584;-66
2022/12/06 01:40:19;;;;;;;9.35;5.15;;;;;;;;;;5001351;28;20224;-66
2022/12/06 01:42:44;;;;;;;9.13;4.73;;;;;;;;;;5002667;28;20303;-66
2022/12/06 01:45:10;;;;;;;8.87;5.10;;;;;;;;;;5002239;28;20243;-66
2022/12/06 01:47:37;;;;;;;10.07;4.93;;;;;;;;;;4999519;28;20439;-66
2022/12/06 01:50:05;;;;;;;7.38;4.10;;;;;;;;;;4993290;28;20229;-66
2022/12/06 01:52:33;;;;;;;7.37;4.40;;;;;;;;;;4992901;28;20220;-66
2022/12/06 01:54:58;;;;;;;8.67;4.77;;;;;;;;;;4995313;28;20290;-66
2022/12/06 01:57:24;;;;;;;9.17;4.63;;;;;;;;;;4989216;28;20213;-66
2022/12/06 01:59:49;;;;;;;9.40;5.03;;;;;;;;;;4991848;28;20224;-66
2022/12/06 02:02:14;;;;;;;9.77;5.53;;;;;;;;;;4981955;28;20291;-66
2022/12/06 02:04:40;;;;;;;9.95;4.88;;;;;;;;;;5000833;28;20218;-66
2022/12/06 02:07:05;;;;;;;8.87;4.50;;;;;;;;;;4997425;28;20243;-66
2022/12/06 02:09:30;;;;;;;10.77;5.10;;;;;;;;;;5000135;28;20223;-66
2022/12/06 02:11:55;;;;;;;10.95;5.25;;;;;;;;;;4977301;28;20645;-67
2022/12/06 02:14:23;;;;;;;8.43;4.87;;;;;;;;;;4993413;28;20520;-66
2022/12/06 02:16:51;;;;;;;8.23;4.37;;;;;;;;;;4989101;28;20217;-67
2022/12/06 02:19:22;;;;;;;7.53;4.50;;;;;;;;;;5004227;28;20221;-66
2022/12/06 02:21:51;;;;;;;7.60;4.20;;;;;;;;;;5009515;28;20220;-66
2022/12/06 02:24:38;;;;;;;7.53;4.10;;;;;;;;;;4996549;28;20732;-66
2022/12/06 02:27:18;;;;;;;7.43;3.93;;;;;;;;;;4993887;28;20227;-66
2022/12/06 02:29:47;;;;;;;8.37;4.60;;;;;;;;;;4994038;28;20209;-66
2022/12/06 02:32:16;;;;;;;8.17;4.20;;;;;;;;;;4994202;28;20575;-66
2022/12/06 02:34:46;;;;;;;7.90;4.30;;;;;;;;;;4994761;28;20284;-66
2022/12/06 02:37:12;;;;;;;9.00;4.03;;;;;;;;;;4993501;28;20217;-66
2022/12/06 02:39:39;;;;;;;8.40;4.73;;;;;;;;;;4995836;28;20217;-66
2022/12/06 02:42:05;;;;;;;6.93;4.43;;;;;;;;;;4995213;28;20224;-66
2022/12/06 02:44:35;;;;;;;7.87;4.63;;;;;;;;;;4993870;28;20213;-66
2022/12/06 02:47:00;;;;;;;7.97;4.77;;;;;;;;;;4994218;28;20700;-66
2022/12/06 02:49:25;;;;;;;11.20;4.70;;;;;;;;;;4995819;28;20333;-66
2022/12/06 02:51:51;;;;;;;10.47;5.27;;;;;;;;;;4993440;28;20239;-66
2022/12/06 02:54:16;;;;;;;12.63;5.50;;;;;;;;;;4995488;28;20603;-66
2022/12/06 02:56:42;;;;;;;8.23;5.10;;;;;;;;;;4993974;28;20684;-66
2022/12/06 02:59:08;;;;;;;10.47;5.10;;;;;;;;;;4996743;28;20577;-66
2022/12/06 03:01:33;;;;;;;9.83;4.93;;;;;;;;;;4994289;28;20304;-66
2022/12/06 03:04:13;;;;;;;10.67;5.37;;;;;;;;;;4995361;28;20343;-66
2022/12/06 03:06:50;;;;;;;12.43;4.90;;;;;;;;;;4980138;28;20589;-66
2022/12/06 03:09:22;;;;;;;10.03;5.20;;;;;;;;;;4975521;28;20617;-66
2022/12/06 03:11:48;;;;;;;11.37;5.13;;;;;;;;;;4973378;28;20638;-66
2022/12/06 03:14:16;;;;;;;9.97;5.23;;;;;;;;;;4993258;28;20217;-66
2022/12/06 03:16:46;;;;;;;10.47;5.33;;;;;;;;;;5010764;28;20286;-66
2022/12/06 03:19:17;;;;;;;12.43;5.27;;;;;;;;;;5013645;28;20217;-66
2022/12/06 03:21:52;;;;;;;12.43;5.00;;;;;;;;;;5005733;28;20213;-66
2022/12/06 03:24:17;;;;;;;11.57;4.97;;;;;;;;;;5009100;28;20300;-66
2022/12/06 03:26:43;;;;;;;8.90;4.90;;;;;;;;;;4997060;28;20300;-66
2022/12/06 03:29:09;;;;;;;10.53;4.67;;;;;;;;;;4993861;28;20220;-66
2022/12/06 03:31:35;;;;;;;11.93;4.87;;;;;;;;;;4994649;28;20205;-66
2022/12/06 03:34:01;;;;;;;13.93;4.90;;;;;;;;;;4992803;28;20303;-66
2022/12/06 03:36:26;;;;;;;11.38;4.63;;;;;;;;;;4987188;28;20680;-66
2022/12/06 03:38:53;;;;;;;12.60;5.00;;;;;;;;;;4970128;28;20229;-66
2022/12/06 03:41:18;;;;;;;9.87;4.70;;;;;;;;;;4976254;28;20368;-66
2022/12/06 03:43:43;;;;;;;11.40;5.23;;;;;;;;;;4980214;28;20308;-66
2022/12/06 03:46:11;;;;;;;8.97;4.47;;;;;;;;;;4965627;28;20218;-66
2022/12/06 03:48:39;;;;;;;11.60;5.30;;;;;;;;;;4995145;28;20574;-66
2022/12/06 03:51:06;;;;;;;9.47;5.10;;;;;;;;;;4976133;28;20593;-66
2022/12/06 03:53:31;;;;;;;9.85;4.60;;;;;;;;;;4957301;28;20515;-66
2022/12/06 03:55:56;;;;;;;12.43;4.57;;;;;;;;;;4993107;28;20583;-66
2022/12/06 03:58:22;;;;;;;9.50;4.68;;;;;;;;;;4964854;28;20221;-66
2022/12/06 04:00:47;;;;;;;11.33;4.90;;;;;;;;;;4965824;28;20578;-66
2022/12/06 04:03:12;;;;;;;12.70;5.03;;;;;;;;;;4964051;28;20569;-66
2022/12/06 04:05:38;;;;;;;13.35;5.25;;;;;;;;;;4965889;28;20232;-66
2022/12/06 04:08:03;;;;;;;11.57;5.00;;;;;;;;;;4982991;28;20673;-67
2022/12/06 04:10:28;;;;;;;12.77;4.73;;;;;;;;;;4980565;28;20223;-67
2022/12/06 04:12:59;;;;;;;11.10;5.00;;;;;;;;;;4957501;28;20236;-67
2022/12/06 04:15:25;;;;;;;9.73;4.82;;;;;;;;;;4969830;28;20225;-67
2022/12/06 04:23:18;;;;;;;11.30;4.23;;;;;;;;;;4975968;28;20221;-67
2022/12/06 04:25:43;;;;;;;10.37;4.47;;;;;;;;;;4965044;28;20233;-67
2022/12/06 04:39:04;;;;;;;7.70;3.60;;;;;;;;;;4975365;28;20231;-67
2022/12/06 04:44:15;;;;;;;8.33;3.60;;;;;;;;;;4982332;28;20695;-66
2022/12/06 04:46:40;;;;;;;8.63;3.55;;;;;;;;;;4965131;28;20252;-66
2022/12/06 04:49:06;;;;;;;9.13;3.87;;;;;;;;;;4964370;28;20214;-67
2022/12/06 04:51:31;;;;;;;9.20;3.67;;;;;;;;;;4963810;28;20297;-66
2022/12/06 04:53:56;;;;;;;8.23;4.27;;;;;;;;;;4964646;28;20591;-67
2022/12/06 04:56:22;;;;;;;6.60;3.63;;;;;;;;;;4960085;28;20565;-66
2022/12/06 04:58:47;;;;;;;9.57;4.20;;;;;;;;;;4956883;28;20280;-67
2022/12/06 05:01:12;;;;;;;7.00;3.50;;;;;;;;;;4956073;28;20760;-67
2022/12/06 05:03:38;;;;;;;7.73;3.83;;;;;;;;;;4960211;28;20234;-66
2022/12/06 05:06:03;;;;;;;8.83;3.63;;;;;;;;;;4963242;28;20252;-67
2022/12/06 05:08:28;;;;;;;9.37;3.70;;;;;;;;;;4964386;28;20253;-67
2022/12/06 05:10:54;;;;;;;9.53;3.90;;;;;;;;;;4964181;28;20256;-67
2022/12/06 05:13:19;;;;;;;8.20;3.53;;;;;;;;;;4963453;28;20312;-66
2022/12/06 05:15:49;;;;;;;8.10;3.30;;;;;;;;;;4963840;28;20570;-67
2022/12/06 05:18:14;;;;;;;8.67;3.60;;;;;;;;;;4980886;28;20213;-67
2022/12/06 05:20:39;;;;;;;7.47;3.57;;;;;;;;;;4975336;28;20606;-67
2022/12/06 05:23:05;;;;;;;7.10;3.70;;;;;;;;;;4968809;28;20225;-67
2022/12/06 05:25:30;;;;;;;7.80;4.03;;;;;;;;;;4956698;28;20820;-67
2022/12/06 05:27:55;;;;;;;9.47;3.70;;;;;;;;;;4964019;28;20213;-67
2022/12/06 05:30:20;;;;;;;7.30;3.20;;;;;;;;;;4963613;28;20297;-67
2022/12/06 05:32:46;;;;;;;8.10;3.20;;;;;;;;;;4963543;28;20241;-67
2022/12/06 05:35:11;;;;;;;7.33;3.13;;;;;;;;;;4963526;28;20296;-67
2022/12/06 05:37:36;;;;;;;6.80;3.30;;;;;;;;;;4983180;28;20217;-67
2022/12/06 05:40:02;;;;;;;6.50;3.10;;;;;;;;;;4982054;28;20598;-67
2022/12/06 05:42:27;;;;;;;7.47;3.37;;;;;;;;;;4977522;28;20213;-66
2022/12/06 05:44:52;;;;;;;8.10;3.50;;;;;;;;;;4969745;28;20316;-67
2022/12/06 05:47:18;;;;;;;7.70;3.38;;;;;;;;;;4954840;28;20251;-67
2022/12/06 05:49:43;;;;;;;6.97;3.40;;;;;;;;;;4962035;28;20229;-67
2022/12/06 05:52:08;;;;;;;8.00;3.20;;;;;;;;;;4963566;28;20222;-67
2022/12/06 05:54:34;;;;;;;7.43;3.60;;;;;;;;;;4986138;28;20216;-66
2022/12/06 05:56:59;;;;;;;6.63;3.27;;;;;;;;;;4977245;28;21016;-66
2022/12/06 05:59:24;;;;;;;9.80;3.30;;;;;;;;;;4967075;28;20214;-66
2022/12/06 06:01:50;;;;;;;6.60;3.27;;;;;;;;;;4966630;28;20707;-67
2022/12/06 06:04:15;;;;;;;6.20;2.72;;;;;;;;;;4963395;28;20268;-67
2022/12/06 06:06:40;;;;;;;8.55;3.10;;;;;;;;;;4978738;28;20217;-67
2022/12/06 06:09:05;;;;;;;7.37;3.43;;;;;;;;;;4977638;28;20620;-67
2022/12/06 06:11:31;;;;;;;6.53;2.93;;;;;;;;;;4981851;28;20217;-67
2022/12/06 06:13:56;;;;;;;8.45;3.50;;;;;;;;;;4986652;28;20581;-67
2022/12/06 06:16:21;;;;;;;7.03;2.90;;;;;;;;;;4968512;28;20293;-67
2022/12/06 06:18:46;;;;;;;7.63;2.80;;;;;;;;;;4967503;28;20209;-67
2022/12/06 06:21:12;;;;;;;9.75;4.20;;;;;;;;;;4966875;28;20767;-67
2022/12/06 06:23:37;;;;;;;6.97;3.13;;;;;;;;;;4966355;28;20206;-67
2022/12/06 06:26:06;;;;;;;7.50;3.30;;;;;;;;;;4966085;28;20253;-67
2022/12/06 06:28:32;;;;;;;7.38;2.63;;;;;;;;;;4979103;28;20802;-67
2022/12/06 06:31:00;;;;;;;6.30;2.90;;;;;;;;;;4977627;28;20209;-67
2022/12/06 06:33:26;;;;;;;8.90;2.90;;;;;;;;;;4967955;28;20221;-67
2022/12/06 06:35:51;;;;;;;9.48;3.78;;;;;;;;;;4966135;28;20209;-67
2022/12/06 06:38:16;;;;;;;8.03;3.40;;;;;;;;;;4984525;28;20213;-67
2022/12/06 06:40:41;;;;;;;6.80;3.17;;;;;;;;;;4985913;28;20696;-67
2022/12/06 06:43:17;;;;;;;11.77;6.93;;;;;;;;;;4984996;28;20716;-65
2022/12/06 06:45:44;;;;;;;9.05;5.30;;;;;;;;;;4973647;28;20419;-67
2022/12/06 06:48:09;;;;;;;18.42;12.65;;;;;;;;;;4966181;28;20225;-65
2022/12/06 06:50:34;;;;;;;11.33;6.50;;;;;;;;;;4959621;28;20484;-66
2022/12/06 06:53:00;;;;;;;25.60;17.42;;;;;;;;;;4959921;28;20325;-65
2022/12/06 06:55:25;;;;;;;12.67;6.73;;;;;;;;;;4958241;28;20210;-65
2022/12/06 06:57:51;;;;;;;6.88;3.35;;;;;;;;;;4965587;28;20647;-65
2022/12/06 07:00:16;;;;;;;7.80;3.05;;;;;;;;;;4967177;28;21041;-65
2022/12/06 07:02:41;;;;;;;8.77;3.60;;;;;;;;;;4966300;28;20261;-64
2022/12/06 07:05:07;;;;;;;8.87;3.50;;;;;;;;;;4965254;28;20842;-65
2022/12/06 07:07:33;;;;;;;7.00;2.90;;;;;;;;;;4965954;28;20228;-65
2022/12/06 07:09:59;;;;;;;5.67;2.77;;;;;;;;;;4967087;28;20578;-65
2022/12/06 07:12:24;;;;;;;7.83;2.93;;;;;;;;;;4961238;28;20232;-67
2022/12/06 07:14:49;;;;;;;8.03;3.50;;;;;;;;;;4959072;28;20701;-67
2022/12/06 07:17:14;;;;;;;6.60;3.50;;;;;;;;;;4957598;28;20521;-65
2022/12/06 07:19:40;;;;;;;7.60;3.40;;;;;;;;;;4962239;28;20647;-67
2022/12/06 07:22:05;;;;;;;6.77;3.17;;;;;;;;;;4966062;28;20214;-67
2022/12/06 07:24:30;;;;;;;7.38;3.85;;;;;;;;;;4969405;28;20210;-67
2022/12/06 07:26:56;;;;;;;9.70;3.50;;;;;;;;;;4965351;28;20573;-67
2022/12/06 07:29:21;;;;;;;5.03;3.03;;;;;;;;;;4965761;28;20306;-66
2022/12/06 07:31:46;;;;;;;8.37;3.50;;;;;;;;;;4966404;28;20253;-65
2022/12/06 07:34:12;;;;;;;5.20;3.20;;;;;;;;;;4981484;28;20244;-66
2022/12/06 07:36:37;;;;;;;6.50;3.30;;;;;;;;;;4958585;28;20221;-66
2022/12/06 07:39:02;;;;;;;8.13;3.50;;;;;;;;;;4957090;28;20589;-65
2022/12/06 07:46:56;;;;;;;7.40;3.50;;;;;;;;;;4964912;28;20630;-66
2022/12/06 07:49:21;;;;;;;6.07;3.03;;;;;;;;;;4965207;28;20233;-66
2022/12/06 07:51:46;;;;;;;6.43;3.47;;;;;;;;;;4966544;28;20805;-66
2022/12/06 07:54:12;;;;;;;7.90;3.63;;;;;;;;;;4965051;28;20232;-66
2022/12/06 07:56:38;;;;;;;7.27;3.27;;;;;;;;;;4965044;28;20202;-66
2022/12/06 07:59:03;;;;;;;6.80;3.20;;;;;;;;;;4959464;28;20214;-66
2022/12/06 08:01:28;;;;;;;6.83;3.00;;;;;;;;;;4971758;28;20217;-66
2022/12/06 08:03:55;;;;;;;6.73;3.13;;;;;;;;;;4981666;28;20225;-66
2022/12/06 08:06:20;;;;;;;5.67;2.77;;;;;;;;;;4983659;28;20232;-66
2022/12/06 08:08:45;;;;;;;4.83;2.77;;;;;;;;;;4984114;28;20210;-66
2022/12/06 08:11:11;;;;;;;4.37;2.67;;;;;;;;;;4988533;28;20260;-66
2022/12/06 08:13:36;;;;;;;8.73;2.93;;;;;;;;;;4984700;28;20613;-66
2022/12/06 08:16:05;;;;;;;7.00;3.10;;;;;;;;;;4987011;28;20216;-66
2022/12/06 08:18:30;;;;;;;7.90;2.90;;;;;;;;;;4993872;28;20670;-66
2022/12/06 08:20:56;;;;;;;4.93;2.90;;;;;;;;;;4984850;28;20209;-66
2022/12/06 08:23:22;;;;;;;5.27;2.60;;;;;;;;;;4982283;28;20217;-66
2022/12/06 08:25:55;;;;;;;6.00;2.70;;;;;;;;;;4982822;28;20206;-66
2022/12/06 08:28:20;;;;;;;5.53;2.63;;;;;;;;;;4985808;28;21500;-66
2022/12/06 08:30:45;;;;;;;6.43;2.60;;;;;;;;;;4996130;28;20288;-66
2022/12/06 08:33:11;;;;;;;5.20;2.67;;;;;;;;;;4998615;28;20228;-66
2022/12/06 08:35:36;;;;;;;6.30;2.70;;;;;;;;;;5002937;28;20288;-66
2022/12/06 08:38:01;;;;;;;7.67;2.40;;;;;;;;;;5013060;28;20213;-66
2022/12/06 08:40:27;;;;;;;6.30;2.53;;;;;;;;;;5004588;28;20296;-66
2022/12/06 08:42:52;;;;;;;5.27;2.67;;;;;;;;;;4999224;28;20714;-66
2022/12/06 08:45:17;;;;;;;6.43;3.10;;;;;;;;;;4992344;28;20221;-67
2022/12/06 08:47:42;;;;;;;6.45;3.47;;;;;;;;;;4993254;28;20574;-66
2022/12/06 08:50:08;;;;;;;4.93;2.83;;;;;;;;;;4991726;28;20209;-66
2022/12/06 08:52:33;;;;;;;7.93;3.10;;;;;;;;;;4992556;28;20579;-66
2022/12/06 08:54:58;;;;;;;7.53;2.70;;;;;;;;;;4999533;28;20213;-66
2022/12/06 08:57:24;;;;;;;4.93;2.20;;;;;;;;;;4983867;28;20221;-67
2022/12/06 08:59:49;;;;;;;5.37;2.60;;;;;;;;;;4997808;28;20225;-66
2022/12/06 09:02:14;;;;;;;4.53;2.50;;;;;;;;;;4996077;28;20692;-66
2022/12/06 09:04:39;;;;;;;5.43;3.07;;;;;;;;;;5010383;28;20220;-66
2022/12/06 09:07:05;;;;;;;3.90;2.20;;;;;;;;;;4992928;28;20228;-65
2022/12/06 09:09:30;;;;;;;5.47;2.30;;;;;;;;;;4991605;28;20296;-65
2022/12/06 09:11:55;;;;;;;5.50;2.57;;;;;;;;;;4990810;28;20209;-66
2022/12/06 09:14:20;;;;;;;6.68;2.55;;;;;;;;;;4991744;28;20665;-65
2022/12/06 09:16:46;;;;;;;6.57;2.33;;;;;;;;;;4980648;28;20307;-66
2022/12/06 09:19:11;;;;;;;6.57;2.70;;;;;;;;;;4988972;28;20266;-65
2022/12/06 09:21:38;;;;;;;5.03;2.47;;;;;;;;;;4993131;28;20281;-66
2022/12/06 09:24:03;;;;;;;2.47;1.10;;;;;;;;;;4980694;28;20304;-65
2022/12/06 09:26:29;;;;;;;4.97;2.60;;;;;;;;;;4973010;28;20666;-67
2022/12/06 09:28:54;;;;;;;6.28;2.50;;;;;;;;;;4972884;28;20210;-66
2022/12/06 09:31:19;;;;;;;6.37;2.50;;;;;;;;;;4980803;28;20213;-66
2022/12/06 09:33:45;;;;;;;6.30;2.50;;;;;;;;;;4986833;28;20795;-67
2022/12/06 09:36:12;;;;;;;6.53;2.60;;;;;;;;;;4988137;28;20528;-68
2022/12/06 09:38:38;;;;;;;5.83;2.43;;;;;;;;;;4989586;28;20213;-64
2022/12/06 09:41:07;;;;;;;5.82;2.60;;;;;;;;;;4992763;28;20296;-66
2022/12/06 09:43:41;;;;;;;4.45;2.05;;;;;;;;;;4984526;28;20217;-66
2022/12/06 09:46:08;;;;;;;6.15;2.13;;;;;;;;;;4985490;28;20608;-65
2022/12/06 09:48:36;;;;;;;3.33;2.00;;;;;;;;;;4973887;28;20222;-65
2022/12/06 09:51:11;;;;;;;3.63;1.90;;;;;;;;;;4972404;28;20568;-65
2022/12/06 09:53:41;;;;;;;3.88;1.60;;;;;;;;;;4991492;28;20219;-65
2022/12/06 09:56:06;;;;;;;3.38;1.88;;;;;;;;;;5000868;28;20569;-65
2022/12/06 09:58:36;;;;;;;3.60;1.70;;;;;;;;;;4990656;28;20213;-66
2022/12/06 10:01:05;;;;;;;2.53;1.60;;;;;;;;;;4991051;28;20227;-65
2022/12/06 10:03:34;;;;;;;4.07;1.75;;;;;;;;;;4981165;28;20244;-66
2022/12/06 10:06:01;;;;;;;2.65;1.60;;;;;;;;;;5001628;28;20213;-66
2022/12/06 10:08:35;;;;;;;2.60;1.50;;;;;;;;;;4997258;28;20212;-66
2022/12/06 10:11:03;;;;;;;2.95;1.45;;;;;;;;;;5004514;28;20278;-66
2022/12/06 10:13:35;;;;;;;3.63;1.83;;;;;;;;;;5000843;28;20221;-66
2022/12/06 10:16:05;;;;;;;3.67;1.70;;;;;;;;;;4989408;28;20332;-66
2022/12/06 10:18:31;;;;;;;4.15;1.80;;;;;;;;;;5005084;28;20216;-66
2022/12/06 10:21:03;;;;;;;3.65;1.58;;;;;;;;;;5000486;28;20331;-65
2022/12/06 10:23:31;;;;;;;2.92;1.77;;;;;;;;;;4969891;28;20272;-65
2022/12/06 10:26:02;;;;;;;4.95;2.45;;;;;;;;;;4977401;28;20312;-65
2022/12/06 10:28:33;;;;;;;4.95;2.28;;;;;;;;;;4989473;28;20926;-65
2022/12/06 10:31:03;;;;;;;3.13;1.80;;;;;;;;;;4981264;28;20288;-65
2022/12/06 10:33:31;;;;;;;3.05;1.70;;;;;;;;;;4982576;28;20236;-65
2022/12/06 10:35:59;;;;;;;3.70;1.80;;;;;;;;;;4992699;28;20299;-65
2022/12/06 10:38:36;;;;;;;5.78;2.35;;;;;;;;;;5004294;28;20216;-65
2022/12/06 10:41:04;;;;;;;4.50;1.95;;;;;;;;;;5006427;28;20851;-65
2022/12/06 10:43:43;;;;;;;4.18;2.03;;;;;;;;;;5002320;28;20243;-65
2022/12/06 10:49:03;;;;;;;2.72;1.60;;;;;;;;;;5001039;28;20230;-65
2022/12/06 10:51:34;;;;;;;3.90;1.65;;;;;;;;;;4989882;28;20214;-65
2022/12/06 10:54:02;;;;;;;4.65;1.90;;;;;;;;;;4987563;28;20703;-65
2022/12/06 10:56:28;;;;;;;3.75;1.73;;;;;;;;;;4981929;28;20801;-65
2022/12/06 10:58:56;;;;;;;3.75;1.50;;;;;;;;;;4969460;28;20358;-65
2022/12/06 11:01:23;;;;;;;5.30;1.52;;;;;;;;;;4988458;28;20221;-65
2022/12/06 11:03:55;;;;;;;3.65;1.25;;;;;;;;;;4988267;28;20356;-65
2022/12/06 11:06:27;;;;;;;2.90;1.33;;;;;;;;;;4975093;28;20597;-65
2022/12/06 11:08:53;;;;;;;4.05;1.55;;;;;;;;;;4980910;28;20217;-65
2022/12/06 11:11:20;;;;;;;7.00;1.63;;;;;;;;;;4979870;28;20225;-65
2022/12/06 11:13:46;;;;;;;3.13;1.45;;;;;;;;;;4965822;28;20226;-65
2022/12/06 11:16:16;;;;;;;4.10;1.30;;;;;;;;;;4968721;28;20217;-65
2022/12/06 11:18:41;;;;;;;3.90;1.35;;;;;;;;;;4987885;28;21052;-65
2022/12/06 11:21:17;;;;;;;3.78;1.40;;;;;;;;;;4986817;28;20279;-65
2022/12/06 11:23:46;;;;;;;5.63;1.98;;;;;;;;;;4986928;28;20212;-65
2022/12/06 11:26:16;;;;;;;5.07;2.05;;;;;;;;;;4987504;28;20569;-65
2022/12/06 11:28:51;;;;;;;5.03;1.58;;;;;;;;;;4984240;28;20210;-65
2022/12/06 11:31:24;;;;;;;4.35;1.40;;;;;;;;;;4978517;28;20779;-65
2022/12/06 11:33:50;;;;;;;4.38;1.40;;;;;;;;;;4979661;28;20280;-65
2022/12/06 11:36:15;;;;;;;4.63;1.30;;;;;;;;;;4983701;28;20217;-65
2022/12/06 11:38:40;;;;;;;5.47;1.52;;;;;;;;;;4967709;28;20246;-65
2022/12/06 11:41:07;;;;;;;2.83;1.30;;;;;;;;;;4969142;28;20218;-66
2022/12/06 11:43:34;;;;;;;3.83;1.35;;;;;;;;;;4988184;28;20213;-65
2022/12/06 11:45:59;;;;;;;3.53;1.48;;;;;;;;;;4987594;28;20224;-65
2022/12/06 11:48:27;;;;;;;6.20;1.70;;;;;;;;;;4987685;28;20213;-65
2022/12/06 11:50:52;;;;;;;5.22;1.40;;;;;;;;;;4985574;28;20224;-65
2022/12/06 11:53:20;;;;;;;4.55;1.40;;;;;;;;;;4978621;28;20237;-65
2022/12/06 11:55:48;;;;;;;3.78;1.30;;;;;;;;;;4979757;28;20711;-65
2022/12/06 11:58:16;;;;;;;3.17;1.50;;;;;;;;;;4962414;28;20221;-65
2022/12/06 12:00:57;;;;;;;7.95;2.13;;;;;;;;;;4969358;28;20610;-65
2022/12/06 12:03:27;;;;;;;4.05;1.70;;;;;;;;;;4969420;28;20590;-65
2022/12/06 12:05:56;;;;;;;8.45;2.08;;;;;;;;;;4983288;28;20225;-65
2022/12/06 12:08:22;;;;;;;5.28;1.63;;;;;;;;;;4985044;28;20255;-65
2022/12/06 12:10:57;;;;;;;4.35;1.50;;;;;;;;;;4987606;28;20225;-65
2022/12/06 12:16:12;;;;;;;3.38;1.30;;;;;;;;;;4968705;28;20300;-65
2022/12/06 12:18:38;;;;;;;6.22;1.52;;;;;;;;;;4962998;28;20229;-65
2022/12/06 12:21:04;;;;;;;7.05;1.92;;;;;;;;;;4968857;28;20233;-65
2022/12/06 12:23:30;;;;;;;3.72;1.55;;;;;;;;;;4968873;28;20202;-65
2022/12/06 12:26:00;;;;;;;5.93;1.50;;;;;;;;;;4987030;28;20271;-65
2022/12/06 12:28:27;;;;;;;3.25;1.13;;;;;;;;;;5005911;28;20299;-65
2022/12/06 12:30:53;;;;;;;7.63;1.45;;;;;;;;;;5007387;28;20626;-65
2022/12/06 12:33:19;;;;;;;2.92;1.55;;;;;;;;;;5006189;28;20387;-64
2022/12/06 12:35:45;;;;;;;6.35;1.80;;;;;;;;;;5005650;28;20220;-65
2022/12/06 12:38:13;;;;;;;5.10;2.13;;;;;;;;;;4998334;28;20393;-64
2022/12/06 12:40:42;;;;;;;7.13;1.77;;;;;;;;;;4999300;28;20213;-65
2022/12/06 12:43:14;;;;;;;3.80;1.33;;;;;;;;;;5000216;28;20286;-65
2022/12/06 12:45:40;;;;;;;4.50;1.48;;;;;;;;;;5005359;28;20208;-65
2022/12/06 12:48:24;;;;;;;4.50;1.45;;;;;;;;;;5005479;28;20288;-65
2022/12/06 12:50:51;;;;;;;4.35;1.58;;;;;;;;;;5005643;28;20303;-65
2022/12/06 12:53:26;;;;;;;4.03;1.40;;;;;;;;;;5006096;28;20290;-65
2022/12/06 12:55:59;;;;;;;4.45;1.38;;;;;;;;;;5003679;28;20220;-65
2022/12/06 12:58:25;;;;;;;4.07;1.50;;;;;;;;;;5003167;28;20227;-65
2022/12/06 13:00:59;;;;;;;3.13;1.73;;;;;;;;;;4980571;28;20209;-65
2022/12/06 13:03:25;;;;;;;4.05;1.58;;;;;;;;;;4996393;28;20228;-65
2022/12/06 13:05:50;;;;;;;5.20;1.60;;;;;;;;;;4999164;28;20229;-65
2022/12/06 13:08:17;;;;;;;5.80;1.40;;;;;;;;;;5006499;28;20571;-65
2022/12/06 13:10:43;;;;;;;4.35;1.23;;;;;;;;;;5005401;28;20224;-65
2022/12/06 13:13:14;;;;;;;7.13;2.15;;;;;;;;;;5001194;28;20597;-65
2022/12/06 13:15:46;;;;;;;4.57;1.40;;;;;;;;;;4998910;28;20232;-65
2022/12/06 13:18:16;;;;;;;4.25;1.30;;;;;;;;;;5003554;28;20343;-65
2022/12/06 13:20:41;;;;;;;5.20;1.33;;;;;;;;;;5006356;28;20208;-65
2022/12/06 13:23:08;;;;;;;4.07;1.50;;;;;;;;;;4996447;28;20303;-65
2022/12/06 13:25:33;;;;;;;3.80;1.40;;;;;;;;;;4996268;28;20212;-65
2022/12/06 13:27:59;;;;;;;4.68;1.60;;;;;;;;;;4999891;28;20215;-65
2022/12/06 13:30:26;;;;;;;4.05;1.50;;;;;;;;;;5001046;28;20209;-65
2022/12/06 13:32:51;;;;;;;5.47;1.88;;;;;;;;;;4986828;28;20237;-65
2022/12/06 13:35:28;;;;;;;4.55;1.42;;;;;;;;;;4986951;28;20223;-65
2022/12/06 13:37:55;;;;;;;3.50;1.30;;;;;;;;;;5003975;28;20235;-65
2022/12/06 13:40:44;;;;;;;3.78;1.40;;;;;;;;;;5007871;28;20220;-65
2022/12/06 13:43:36;;;;;;;4.20;1.65;;;;;;;;;;4996219;28;20605;-65
2022/12/06 13:46:05;;;;;;;6.60;1.30;;;;;;;;;;5000050;28;20208;-65
2022/12/06 13:48:31;;;;;;;3.45;1.33;;;;;;;;;;5012471;28;20216;-65
2022/12/06 13:50:58;;;;;;;3.95;1.48;;;;;;;;;;5012354;28;20214;-65
2022/12/06 13:53:24;;;;;;;4.30;1.40;;;;;;;;;;5005004;28;20249;-65
2022/12/06 13:55:52;;;;;;;8.40;1.55;;;;;;;;;;5003468;28;20237;-64
2022/12/06 13:58:17;;;;;;;7.88;1.60;;;;;;;;;;4987305;28;20615;-65
2022/12/06 14:00:43;;;;;;;3.63;1.48;;;;;;;;;;4998106;28;20213;-65
2022/12/06 14:03:15;;;;;;;5.57;1.95;;;;;;;;;;4992221;28;20233;-65
2022/12/06 14:05:52;;;;;;;4.10;1.40;;;;;;;;;;4992668;28;20284;-64
2022/12/06 14:08:18;;;;;;;4.55;1.60;;;;;;;;;;4991680;28;20755;-63
2022/12/06 14:10:43;;;;;;;4.80;1.60;;;;;;;;;;4992294;28;20288;-64
2022/12/06 14:13:13;;;;;;;5.15;1.80;;;;;;;;;;4990438;28;20316;-63
2022/12/06 14:15:39;;;;;;;6.95;1.77;;;;;;;;;;4993122;28;20687;-63
2022/12/06 14:18:05;;;;;;;5.70;1.67;;;;;;;;;;4986218;28;20297;-63
2022/12/06 14:20:30;;;;;;;5.88;1.70;;;;;;;;;;4976629;28;20296;-63
2022/12/06 14:22:56;;;;;;;4.53;1.80;;;;;;;;;;4983169;28;20212;-64
2022/12/06 14:25:22;;;;;;;5.72;1.73;;;;;;;;;;4998153;28;20623;-64
2022/12/06 14:27:48;;;;;;;4.43;1.80;;;;;;;;;;4995018;28;20212;-64
2022/12/06 14:30:14;;;;;;;5.03;2.00;;;;;;;;;;4995783;28;20213;-64
2022/12/06 14:32:42;;;;;;;6.20;1.88;;;;;;;;;;4996135;28;20225;-63
2022/12/06 14:35:11;;;;;;;6.10;2.00;;;;;;;;;;4994919;28;20224;-64
2022/12/06 14:37:37;;;;;;;6.60;1.88;;;;;;;;;;4996080;28;20263;-63
2022/12/06 14:40:10;;;;;;;6.68;2.20;;;;;;;;;;5003434;28;20204;-64
2022/12/06 14:45:19;;;;;;;5.57;2.10;;;;;;;;;;4977593;28;20233;-64
2022/12/06 14:47:45;;;;;;;7.20;2.10;;;;;;;;;;4983865;28;20218;-63
2022/12/06 14:50:23;;;;;;;6.22;2.45;;;;;;;;;;4992854;28;20217;-64
2022/12/06 14:52:53;;;;;;;4.95;1.83;;;;;;;;;;5001262;28;20248;-63
2022/12/06 14:55:19;;;;;;;5.38;2.17;;;;;;;;;;4994633;28;20221;-63
2022/12/06 14:57:45;;;;;;;5.65;2.28;;;;;;;;;;4978804;28;20218;-63
2022/12/06 15:00:14;;;;;;;5.65;2.30;;;;;;;;;;4998010;28;20215;-63
2022/12/06 15:02:39;;;;;;;5.15;2.10;;;;;;;;;;5009971;28;20805;-63
2022/12/06 15:05:24;;;;;;;5.30;2.33;;;;;;;;;;5010194;28;20771;-64
2022/12/06 15:07:50;;;;;;;5.97;2.08;;;;;;;;;;5011901;28;20208;-63
2022/12/06 15:10:20;;;;;;;8.00;2.42;;;;;;;;;;5006474;28;20213;-64
2022/12/06 15:12:54;;;;;;;4.85;2.42;;;;;;;;;;5009568;28;20735;-63